sensor_id;sensor_type;location;lat;lon;timestamp;P1;durP1;ratioP1;P2;durP2;ratioP2
71095;SDS011;58753;49.440;11.126;2022-07-22T00:02:55;8.30;;;3.90;;
71095;SDS011;58753;49.440;11.126;2022-07-22T00:05:20;8.20;;;4.07;;
71095;SDS011;58753;49.440;11.126;2022-07-22T00:07:46;7.17;;;4.37;;
71095;SDS011;58753;49.440;11.126;2022-07-22T00:10:11;7.70;;;4.80;;
71095;SDS011;58753;49.440;11.126;2022-07-22T00:12:37;8.40;;;4.43;;
71095;SDS011;58753;49.440;11.126;2022-07-22T00:15:04;7.07;;;3.97;;
71095;SDS011;58753;49.440;11.126;2022-07-22T00:17:30;6.13;;;4.07;;
71095;SDS011;58753;49.440;11.126;2022-07-22T00:19:56;6.73;;;3.93;;
71095;SDS011;58753;49.440;11.126;2022-07-22T00:22:21;6.40;;;4.30;;
71095;SDS011;58753;49.440;11.126;2022-07-22T00:24:47;6.57;;;4.40;;
71095;SDS011;58753;49.440;11.126;2022-07-22T00:27:12;8.32;;;4.32;;
71095;SDS011;58753;49.440;11.126;2022-07-22T00:29:37;6.77;;;4.37;;
71095;SDS011;58753;49.440;11.126;2022-07-22T00:32:03;6.87;;;3.93;;
71095;SDS011;58753;49.440;11.126;2022-07-22T00:34:29;7.43;;;4.30;;
71095;SDS011;58753;49.440;11.126;2022-07-22T00:36:54;7.77;;;3.87;;
71095;SDS011;58753;49.440;11.126;2022-07-22T00:39:20;7.60;;;4.10;;
71095;SDS011;58753;49.440;11.126;2022-07-22T00:41:47;6.25;;;3.78;;
71095;SDS011;58753;49.440;11.126;2022-07-22T00:44:12;8.13;;;4.68;;
71095;SDS011;58753;49.440;11.126;2022-07-22T00:46:38;8.02;;;4.75;;
71095;SDS011;58753;49.440;11.126;2022-07-22T00:49:05;6.00;;;4.10;;
71095;SDS011;58753;49.440;11.126;2022-07-22T00:51:32;9.52;;;5.03;;
71095;SDS011;58753;49.440;11.126;2022-07-22T00:53:57;7.87;;;4.40;;
71095;SDS011;58753;49.440;11.126;2022-07-22T00:56:24;7.65;;;4.43;;
71095;SDS011;58753;49.440;11.126;2022-07-22T00:58:51;5.97;;;4.10;;
71095;SDS011;58753;49.440;11.126;2022-07-22T01:01:27;6.70;;;4.28;;
71095;SDS011;58753;49.440;11.126;2022-07-22T01:03:53;9.67;;;4.50;;
71095;SDS011;58753;49.440;11.126;2022-07-22T01:06:18;6.53;;;3.53;;
71095;SDS011;58753;49.440;11.126;2022-07-22T01:08:44;7.37;;;4.33;;
71095;SDS011;58753;49.440;11.126;2022-07-22T01:11:11;6.68;;;4.18;;
71095;SDS011;58753;49.440;11.126;2022-07-22T01:13:39;7.20;;;3.40;;
71095;SDS011;58753;49.440;11.126;2022-07-22T01:16:05;8.03;;;5.07;;
71095;SDS011;58753;49.440;11.126;2022-07-22T01:18:32;7.40;;;3.97;;
71095;SDS011;58753;49.440;11.126;2022-07-22T01:20:57;7.55;;;4.13;;
71095;SDS011;58753;49.440;11.126;2022-07-22T01:23:23;8.13;;;4.47;;
71095;SDS011;58753;49.440;11.126;2022-07-22T01:25:48;6.38;;;3.75;;
71095;SDS011;58753;49.440;11.126;2022-07-22T01:28:14;9.00;;;4.87;;
71095;SDS011;58753;49.440;11.126;2022-07-22T01:30:39;7.97;;;4.50;;
71095;SDS011;58753;49.440;11.126;2022-07-22T01:33:05;7.17;;;4.00;;
71095;SDS011;58753;49.440;11.126;2022-07-22T01:35:30;8.10;;;4.47;;
71095;SDS011;58753;49.440;11.126;2022-07-22T01:37:56;11.33;;;4.33;;
71095;SDS011;58753;49.440;11.126;2022-07-22T01:40:21;9.07;;;3.97;;
71095;SDS011;58753;49.440;11.126;2022-07-22T01:42:47;7.63;;;4.50;;
71095;SDS011;58753;49.440;11.126;2022-07-22T01:45:12;6.93;;;4.13;;
71095;SDS011;58753;49.440;11.126;2022-07-22T01:47:40;7.18;;;4.05;;
71095;SDS011;58753;49.440;11.126;2022-07-22T01:50:06;8.73;;;4.38;;
71095;SDS011;58753;49.440;11.126;2022-07-22T01:52:33;7.70;;;4.38;;
71095;SDS011;58753;49.440;11.126;2022-07-22T01:54:59;7.50;;;4.53;;
71095;SDS011;58753;49.440;11.126;2022-07-22T01:57:24;9.17;;;4.60;;
71095;SDS011;58753;49.440;11.126;2022-07-22T01:59:50;6.65;;;3.90;;
71095;SDS011;58753;49.440;11.126;2022-07-22T02:02:16;8.70;;;4.77;;
71095;SDS011;58753;49.440;11.126;2022-07-22T02:04:41;7.67;;;4.73;;
71095;SDS011;58753;49.440;11.126;2022-07-22T02:07:06;8.55;;;4.30;;
71095;SDS011;58753;49.440;11.126;2022-07-22T02:09:32;7.07;;;4.47;;
71095;SDS011;58753;49.440;11.126;2022-07-22T02:12:00;6.73;;;4.97;;
71095;SDS011;58753;49.440;11.126;2022-07-22T02:14:25;9.45;;;5.10;;
71095;SDS011;58753;49.440;11.126;2022-07-22T02:16:51;8.20;;;4.33;;
71095;SDS011;58753;49.440;11.126;2022-07-22T02:19:16;9.17;;;5.23;;
71095;SDS011;58753;49.440;11.126;2022-07-22T02:21:41;7.50;;;4.90;;
71095;SDS011;58753;49.440;11.126;2022-07-22T02:24:07;6.70;;;4.70;;
71095;SDS011;58753;49.440;11.126;2022-07-22T02:26:32;9.23;;;4.83;;
71095;SDS011;58753;49.440;11.126;2022-07-22T02:28:58;10.43;;;5.43;;
71095;SDS011;58753;49.440;11.126;2022-07-22T02:31:24;6.87;;;4.63;;
71095;SDS011;58753;49.440;11.126;2022-07-22T02:33:49;8.20;;;5.17;;
71095;SDS011;58753;49.440;11.126;2022-07-22T02:36:15;7.13;;;4.10;;
71095;SDS011;58753;49.440;11.126;2022-07-22T02:38:40;9.05;;;4.90;;
71095;SDS011;58753;49.440;11.126;2022-07-22T02:41:06;7.83;;;4.77;;
71095;SDS011;58753;49.440;11.126;2022-07-22T02:43:31;8.60;;;4.87;;
71095;SDS011;58753;49.440;11.126;2022-07-22T02:45:57;7.45;;;4.97;;
71095;SDS011;58753;49.440;11.126;2022-07-22T02:48:22;8.07;;;4.00;;
71095;SDS011;58753;49.440;11.126;2022-07-22T02:50:48;7.20;;;5.00;;
71095;SDS011;58753;49.440;11.126;2022-07-22T02:53:13;9.95;;;5.78;;
71095;SDS011;58753;49.440;11.126;2022-07-22T02:55:39;8.02;;;4.93;;
71095;SDS011;58753;49.440;11.126;2022-07-22T02:58:05;7.90;;;4.80;;
71095;SDS011;58753;49.440;11.126;2022-07-22T03:00:32;7.90;;;4.35;;
71095;SDS011;58753;49.440;11.126;2022-07-22T03:02:58;7.32;;;4.78;;
71095;SDS011;58753;49.440;11.126;2022-07-22T03:05:24;8.50;;;4.57;;
71095;SDS011;58753;49.440;11.126;2022-07-22T03:07:49;7.23;;;4.43;;
71095;SDS011;58753;49.440;11.126;2022-07-22T03:10:15;9.43;;;5.18;;
71095;SDS011;58753;49.440;11.126;2022-07-22T03:12:40;7.77;;;4.90;;
71095;SDS011;58753;49.440;11.126;2022-07-22T03:15:06;7.17;;;4.93;;
71095;SDS011;58753;49.440;11.126;2022-07-22T03:17:35;9.00;;;5.10;;
71095;SDS011;58753;49.440;11.126;2022-07-22T03:20:05;9.52;;;4.93;;
71095;SDS011;58753;49.440;11.126;2022-07-22T03:22:32;7.28;;;4.53;;
71095;SDS011;58753;49.440;11.126;2022-07-22T03:24:58;8.70;;;4.23;;
71095;SDS011;58753;49.440;11.126;2022-07-22T03:27:23;8.93;;;4.55;;
71095;SDS011;58753;49.440;11.126;2022-07-22T03:29:49;8.60;;;4.83;;
71095;SDS011;58753;49.440;11.126;2022-07-22T03:32:14;6.83;;;5.20;;
71095;SDS011;58753;49.440;11.126;2022-07-22T03:34:39;8.23;;;4.25;;
71095;SDS011;58753;49.440;11.126;2022-07-22T03:37:05;10.10;;;4.83;;
71095;SDS011;58753;49.440;11.126;2022-07-22T03:39:30;8.37;;;4.87;;
71095;SDS011;58753;49.440;11.126;2022-07-22T03:41:56;7.28;;;5.13;;
71095;SDS011;58753;49.440;11.126;2022-07-22T03:44:21;10.07;;;4.87;;
71095;SDS011;58753;49.440;11.126;2022-07-22T03:46:47;7.37;;;4.83;;
71095;SDS011;58753;49.440;11.126;2022-07-22T03:49:12;7.23;;;4.20;;
71095;SDS011;58753;49.440;11.126;2022-07-22T03:51:38;8.93;;;4.57;;
71095;SDS011;58753;49.440;11.126;2022-07-22T03:54:03;9.43;;;5.33;;
71095;SDS011;58753;49.440;11.126;2022-07-22T03:56:29;10.07;;;4.50;;
71095;SDS011;58753;49.440;11.126;2022-07-22T03:58:54;10.00;;;5.25;;
71095;SDS011;58753;49.440;11.126;2022-07-22T04:01:19;7.53;;;4.87;;
71095;SDS011;58753;49.440;11.126;2022-07-22T04:03:45;9.97;;;5.47;;
71095;SDS011;58753;49.440;11.126;2022-07-22T04:06:10;9.07;;;5.05;;
71095;SDS011;58753;49.440;11.126;2022-07-22T04:08:36;6.83;;;5.10;;
71095;SDS011;58753;49.440;11.126;2022-07-22T04:11:01;8.47;;;5.47;;
71095;SDS011;58753;49.440;11.126;2022-07-22T04:13:27;9.53;;;5.87;;
71095;SDS011;58753;49.440;11.126;2022-07-22T04:15:52;9.48;;;5.00;;
71095;SDS011;58753;49.440;11.126;2022-07-22T04:18:18;12.20;;;5.07;;
71095;SDS011;58753;49.440;11.126;2022-07-22T04:20:43;9.40;;;4.37;;
71095;SDS011;58753;49.440;11.126;2022-07-22T04:23:08;8.37;;;4.90;;
71095;SDS011;58753;49.440;11.126;2022-07-22T04:25:34;11.27;;;5.10;;
71095;SDS011;58753;49.440;11.126;2022-07-22T04:27:59;7.63;;;5.03;;
71095;SDS011;58753;49.440;11.126;2022-07-22T04:30:25;8.93;;;4.22;;
71095;SDS011;58753;49.440;11.126;2022-07-22T04:32:51;9.30;;;5.17;;
71095;SDS011;58753;49.440;11.126;2022-07-22T04:35:16;7.57;;;4.43;;
71095;SDS011;58753;49.440;11.126;2022-07-22T04:37:42;7.60;;;4.80;;
71095;SDS011;58753;49.440;11.126;2022-07-22T04:40:08;8.67;;;5.33;;
71095;SDS011;58753;49.440;11.126;2022-07-22T04:42:34;7.57;;;5.28;;
71095;SDS011;58753;49.440;11.126;2022-07-22T04:44:59;9.23;;;5.93;;
71095;SDS011;58753;49.440;11.126;2022-07-22T04:47:24;8.15;;;4.88;;
71095;SDS011;58753;49.440;11.126;2022-07-22T04:49:50;9.87;;;5.27;;
71095;SDS011;58753;49.440;11.126;2022-07-22T04:52:15;7.63;;;4.77;;
71095;SDS011;58753;49.440;11.126;2022-07-22T04:54:41;9.13;;;5.25;;
71095;SDS011;58753;49.440;11.126;2022-07-22T04:57:06;8.73;;;5.00;;
71095;SDS011;58753;49.440;11.126;2022-07-22T04:59:32;9.77;;;5.80;;
71095;SDS011;58753;49.440;11.126;2022-07-22T05:01:57;7.70;;;4.70;;
71095;SDS011;58753;49.440;11.126;2022-07-22T05:04:23;9.20;;;5.20;;
71095;SDS011;58753;49.440;11.126;2022-07-22T05:06:48;9.67;;;5.23;;
71095;SDS011;58753;49.440;11.126;2022-07-22T05:09:14;9.25;;;5.45;;
71095;SDS011;58753;49.440;11.126;2022-07-22T05:11:39;10.77;;;5.93;;
71095;SDS011;58753;49.440;11.126;2022-07-22T05:14:05;8.53;;;5.33;;
71095;SDS011;58753;49.440;11.126;2022-07-22T05:16:30;9.65;;;6.28;;
71095;SDS011;58753;49.440;11.126;2022-07-22T05:18:56;8.30;;;5.03;;
71095;SDS011;58753;49.440;11.126;2022-07-22T05:21:21;8.30;;;4.40;;
71095;SDS011;58753;49.440;11.126;2022-07-22T05:23:47;12.27;;;6.63;;
71095;SDS011;58753;49.440;11.126;2022-07-22T05:26:12;10.37;;;5.73;;
71095;SDS011;58753;49.440;11.126;2022-07-22T05:28:37;8.83;;;5.60;;
71095;SDS011;58753;49.440;11.126;2022-07-22T05:31:03;9.97;;;6.43;;
71095;SDS011;58753;49.440;11.126;2022-07-22T05:33:28;10.57;;;6.37;;
71095;SDS011;58753;49.440;11.126;2022-07-22T05:35:54;8.77;;;5.97;;
71095;SDS011;58753;49.440;11.126;2022-07-22T05:38:19;10.73;;;7.05;;
71095;SDS011;58753;49.440;11.126;2022-07-22T05:40:45;8.63;;;5.87;;
71095;SDS011;58753;49.440;11.126;2022-07-22T05:43:11;10.93;;;5.78;;
71095;SDS011;58753;49.440;11.126;2022-07-22T05:45:36;10.30;;;6.00;;
71095;SDS011;58753;49.440;11.126;2022-07-22T05:48:02;8.73;;;5.60;;
71095;SDS011;58753;49.440;11.126;2022-07-22T05:50:27;10.18;;;4.72;;
71095;SDS011;58753;49.440;11.126;2022-07-22T05:52:53;10.80;;;5.00;;
71095;SDS011;58753;49.440;11.126;2022-07-22T05:55:19;8.57;;;5.23;;
71095;SDS011;58753;49.440;11.126;2022-07-22T05:57:44;6.80;;;5.20;;
71095;SDS011;58753;49.440;11.126;2022-07-22T06:00:10;12.70;;;6.00;;
71095;SDS011;58753;49.440;11.126;2022-07-22T06:02:35;10.70;;;5.53;;
71095;SDS011;58753;49.440;11.126;2022-07-22T06:05:01;7.80;;;5.07;;
71095;SDS011;58753;49.440;11.126;2022-07-22T06:07:27;8.43;;;5.50;;
71095;SDS011;58753;49.440;11.126;2022-07-22T06:09:53;10.53;;;5.53;;
71095;SDS011;58753;49.440;11.126;2022-07-22T06:12:18;7.75;;;4.72;;
71095;SDS011;58753;49.440;11.126;2022-07-22T06:14:44;8.67;;;4.40;;
71095;SDS011;58753;49.440;11.126;2022-07-22T06:17:11;10.10;;;6.10;;
71095;SDS011;58753;49.440;11.126;2022-07-22T06:19:37;9.82;;;5.22;;
71095;SDS011;58753;49.440;11.126;2022-07-22T06:22:02;9.53;;;5.27;;
71095;SDS011;58753;49.440;11.126;2022-07-22T06:24:27;10.87;;;5.60;;
71095;SDS011;58753;49.440;11.126;2022-07-22T06:26:53;8.23;;;5.30;;
71095;SDS011;58753;49.440;11.126;2022-07-22T06:29:18;10.63;;;4.83;;
71095;SDS011;58753;49.440;11.126;2022-07-22T06:31:44;7.88;;;4.05;;
71095;SDS011;58753;49.440;11.126;2022-07-22T06:34:09;9.63;;;4.43;;
71095;SDS011;58753;49.440;11.126;2022-07-22T06:36:35;7.50;;;4.60;;
71095;SDS011;58753;49.440;11.126;2022-07-22T06:39:00;8.00;;;4.57;;
71095;SDS011;58753;49.440;11.126;2022-07-22T06:41:26;7.40;;;4.40;;
71095;SDS011;58753;49.440;11.126;2022-07-22T06:43:52;9.35;;;4.53;;
71095;SDS011;58753;49.440;11.126;2022-07-22T06:46:18;9.13;;;4.93;;
71095;SDS011;58753;49.440;11.126;2022-07-22T06:48:43;8.73;;;4.85;;
71095;SDS011;58753;49.440;11.126;2022-07-22T06:51:09;10.43;;;4.88;;
71095;SDS011;58753;49.440;11.126;2022-07-22T06:53:35;7.43;;;5.33;;
71095;SDS011;58753;49.440;11.126;2022-07-22T06:56:00;6.82;;;4.18;;
71095;SDS011;58753;49.440;11.126;2022-07-22T06:58:26;6.23;;;4.40;;
71095;SDS011;58753;49.440;11.126;2022-07-22T07:00:51;7.53;;;4.57;;
71095;SDS011;58753;49.440;11.126;2022-07-22T07:03:17;9.18;;;4.28;;
71095;SDS011;58753;49.440;11.126;2022-07-22T07:05:43;8.80;;;4.77;;
71095;SDS011;58753;49.440;11.126;2022-07-22T07:08:08;6.97;;;4.65;;
71095;SDS011;58753;49.440;11.126;2022-07-22T07:10:34;6.73;;;4.10;;
71095;SDS011;58753;49.440;11.126;2022-07-22T07:12:59;7.40;;;4.70;;
71095;SDS011;58753;49.440;11.126;2022-07-22T07:15:25;8.20;;;4.60;;
71095;SDS011;58753;49.440;11.126;2022-07-22T07:17:52;8.02;;;4.55;;
71095;SDS011;58753;49.440;11.126;2022-07-22T07:20:19;8.73;;;4.17;;
71095;SDS011;58753;49.440;11.126;2022-07-22T07:22:44;7.50;;;4.73;;
71095;SDS011;58753;49.440;11.126;2022-07-22T07:25:10;8.63;;;4.25;;
71095;SDS011;58753;49.440;11.126;2022-07-22T07:27:35;6.53;;;4.00;;
71095;SDS011;58753;49.440;11.126;2022-07-22T07:30:02;7.15;;;4.18;;
71095;SDS011;58753;49.440;11.126;2022-07-22T07:32:29;7.17;;;4.53;;
71095;SDS011;58753;49.440;11.126;2022-07-22T07:34:55;9.93;;;4.35;;
71095;SDS011;58753;49.440;11.126;2022-07-22T07:37:21;9.70;;;5.25;;
71095;SDS011;58753;49.440;11.126;2022-07-22T07:39:46;8.27;;;4.83;;
71095;SDS011;58753;49.440;11.126;2022-07-22T07:42:11;6.43;;;4.40;;
71095;SDS011;58753;49.440;11.126;2022-07-22T07:44:37;7.70;;;4.73;;
71095;SDS011;58753;49.440;11.126;2022-07-22T07:47:02;7.55;;;3.97;;
71095;SDS011;58753;49.440;11.126;2022-07-22T07:49:28;8.57;;;5.07;;
71095;SDS011;58753;49.440;11.126;2022-07-22T07:51:53;5.77;;;4.30;;
71095;SDS011;58753;49.440;11.126;2022-07-22T07:54:19;7.55;;;4.28;;
71095;SDS011;58753;49.440;11.126;2022-07-22T07:56:44;7.80;;;4.43;;
71095;SDS011;58753;49.440;11.126;2022-07-22T07:59:10;10.15;;;5.53;;
71095;SDS011;58753;49.440;11.126;2022-07-22T08:01:35;14.53;;;7.23;;
71095;SDS011;58753;49.440;11.126;2022-07-22T08:04:01;32.70;;;11.43;;
71095;SDS011;58753;49.440;11.126;2022-07-22T08:06:27;11.75;;;6.20;;
71095;SDS011;58753;49.440;11.126;2022-07-22T08:08:53;10.90;;;7.13;;
71095;SDS011;58753;49.440;11.126;2022-07-22T08:11:18;10.63;;;5.83;;
71095;SDS011;58753;49.440;11.126;2022-07-22T08:13:43;7.67;;;4.50;;
71095;SDS011;58753;49.440;11.126;2022-07-22T08:16:09;6.73;;;4.27;;
71095;SDS011;58753;49.440;11.126;2022-07-22T08:18:35;7.75;;;4.22;;
71095;SDS011;58753;49.440;11.126;2022-07-22T08:21:00;5.87;;;4.10;;
71095;SDS011;58753;49.440;11.126;2022-07-22T08:23:26;7.43;;;5.10;;
71095;SDS011;58753;49.440;11.126;2022-07-22T08:25:51;10.33;;;5.33;;
71095;SDS011;58753;49.440;11.126;2022-07-22T08:28:17;7.43;;;4.47;;
71095;SDS011;58753;49.440;11.126;2022-07-22T08:30:42;8.40;;;4.23;;
71095;SDS011;58753;49.440;11.126;2022-07-22T08:33:08;9.40;;;5.25;;
71095;SDS011;58753;49.440;11.126;2022-07-22T08:35:34;8.27;;;4.57;;
71095;SDS011;58753;49.440;11.126;2022-07-22T08:37:59;8.25;;;4.70;;
71095;SDS011;58753;49.440;11.126;2022-07-22T08:40:25;7.63;;;4.27;;
71095;SDS011;58753;49.440;11.126;2022-07-22T08:42:51;7.28;;;4.55;;
71095;SDS011;58753;49.440;11.126;2022-07-22T08:45:17;7.20;;;3.97;;
71095;SDS011;58753;49.440;11.126;2022-07-22T08:47:48;10.00;;;4.95;;
71095;SDS011;58753;49.440;11.126;2022-07-22T08:50:15;8.20;;;4.17;;
71095;SDS011;58753;49.440;11.126;2022-07-22T08:52:41;7.47;;;3.63;;
71095;SDS011;58753;49.440;11.126;2022-07-22T08:55:07;6.32;;;4.07;;
71095;SDS011;58753;49.440;11.126;2022-07-22T08:57:35;5.50;;;3.25;;
71095;SDS011;58753;49.440;11.126;2022-07-22T09:00:07;7.53;;;3.88;;
71095;SDS011;58753;49.440;11.126;2022-07-22T09:02:36;5.88;;;4.15;;
71095;SDS011;58753;49.440;11.126;2022-07-22T09:05:04;7.10;;;4.18;;
71095;SDS011;58753;49.440;11.126;2022-07-22T09:07:32;7.85;;;4.70;;
71095;SDS011;58753;49.440;11.126;2022-07-22T09:10:19;6.60;;;4.63;;
71095;SDS011;58753;49.440;11.126;2022-07-22T09:12:52;7.63;;;4.83;;
71095;SDS011;58753;49.440;11.126;2022-07-22T09:15:33;6.47;;;3.83;;
71095;SDS011;58753;49.440;11.126;2022-07-22T09:18:01;6.72;;;4.30;;
71095;SDS011;58753;49.440;11.126;2022-07-22T09:20:28;6.38;;;3.55;;
71095;SDS011;58753;49.440;11.126;2022-07-22T09:22:54;7.50;;;4.28;;
71095;SDS011;58753;49.440;11.126;2022-07-22T09:28:10;6.90;;;4.40;;
71095;SDS011;58753;49.440;11.126;2022-07-22T09:30:44;6.87;;;4.10;;
71095;SDS011;58753;49.440;11.126;2022-07-22T09:33:12;6.47;;;4.10;;
71095;SDS011;58753;49.440;11.126;2022-07-22T09:35:37;7.07;;;4.00;;
71095;SDS011;58753;49.440;11.126;2022-07-22T09:38:05;6.93;;;4.57;;
71095;SDS011;58753;49.440;11.126;2022-07-22T09:40:34;6.30;;;4.93;;
71095;SDS011;58753;49.440;11.126;2022-07-22T09:43:05;6.57;;;3.93;;
71095;SDS011;58753;49.440;11.126;2022-07-22T09:45:36;6.67;;;4.27;;
71095;SDS011;58753;49.440;11.126;2022-07-22T09:48:10;6.20;;;4.10;;
71095;SDS011;58753;49.440;11.126;2022-07-22T09:50:36;5.78;;;4.68;;
71095;SDS011;58753;49.440;11.126;2022-07-22T09:53:02;7.93;;;4.07;;
71095;SDS011;58753;49.440;11.126;2022-07-22T09:55:28;7.00;;;4.73;;
71095;SDS011;58753;49.440;11.126;2022-07-22T09:57:54;7.75;;;4.47;;
71095;SDS011;58753;49.440;11.126;2022-07-22T10:00:22;10.63;;;5.00;;
71095;SDS011;58753;49.440;11.126;2022-07-22T10:02:52;6.57;;;4.07;;
71095;SDS011;58753;49.440;11.126;2022-07-22T10:05:24;8.10;;;4.70;;
71095;SDS011;58753;49.440;11.126;2022-07-22T10:07:51;5.38;;;3.92;;
71095;SDS011;58753;49.440;11.126;2022-07-22T10:10:23;6.88;;;5.00;;
71095;SDS011;58753;49.440;11.126;2022-07-22T10:12:51;7.18;;;4.03;;
71095;SDS011;58753;49.440;11.126;2022-07-22T10:15:18;5.88;;;3.78;;
71095;SDS011;58753;49.440;11.126;2022-07-22T10:17:46;8.40;;;4.30;;
71095;SDS011;58753;49.440;11.126;2022-07-22T10:20:19;8.65;;;4.50;;
71095;SDS011;58753;49.440;11.126;2022-07-22T10:22:50;6.82;;;4.70;;
71095;SDS011;58753;49.440;11.126;2022-07-22T10:25:21;7.47;;;4.05;;
71095;SDS011;58753;49.440;11.126;2022-07-22T10:30:26;7.63;;;4.03;;
71095;SDS011;58753;49.440;11.126;2022-07-22T10:38:08;6.93;;;4.27;;
71095;SDS011;58753;49.440;11.126;2022-07-22T10:43:26;6.80;;;4.18;;
71095;SDS011;58753;49.440;11.126;2022-07-22T10:48:22;9.43;;;4.57;;
71095;SDS011;58753;49.440;11.126;2022-07-22T10:51:10;6.07;;;3.60;;
71095;SDS011;58753;49.440;11.126;2022-07-22T10:53:41;6.00;;;3.72;;
71095;SDS011;58753;49.440;11.126;2022-07-22T10:56:11;7.72;;;4.00;;
71095;SDS011;58753;49.440;11.126;2022-07-22T10:58:40;6.55;;;4.68;;
71095;SDS011;58753;49.440;11.126;2022-07-22T11:01:08;7.93;;;4.33;;
71095;SDS011;58753;49.440;11.126;2022-07-22T11:03:36;6.73;;;3.60;;
71095;SDS011;58753;49.440;11.126;2022-07-22T11:08:56;6.35;;;4.03;;
71095;SDS011;58753;49.440;11.126;2022-07-22T11:14:10;7.93;;;4.15;;
71095;SDS011;58753;49.440;11.126;2022-07-22T11:16:37;9.07;;;4.72;;
71095;SDS011;58753;49.440;11.126;2022-07-22T11:19:02;6.13;;;4.50;;
71095;SDS011;58753;49.440;11.126;2022-07-22T11:21:29;7.18;;;4.20;;
71095;SDS011;58753;49.440;11.126;2022-07-22T11:23:56;5.40;;;3.97;;
71095;SDS011;58753;49.440;11.126;2022-07-22T11:29:15;6.40;;;4.47;;
71095;SDS011;58753;49.440;11.126;2022-07-22T11:32:07;7.53;;;4.87;;
71095;SDS011;58753;49.440;11.126;2022-07-22T11:34:38;7.15;;;4.50;;
71095;SDS011;58753;49.440;11.126;2022-07-22T11:37:16;7.47;;;4.90;;
71095;SDS011;58753;49.440;11.126;2022-07-22T11:39:43;6.03;;;3.88;;
71095;SDS011;58753;49.440;11.126;2022-07-22T11:42:09;6.32;;;3.90;;
71095;SDS011;58753;49.440;11.126;2022-07-22T11:44:35;5.33;;;4.07;;
71095;SDS011;58753;49.440;11.126;2022-07-22T11:47:03;6.00;;;3.90;;
71095;SDS011;58753;49.440;11.126;2022-07-22T11:49:31;6.22;;;3.50;;
71095;SDS011;58753;49.440;11.126;2022-07-22T11:52:01;6.15;;;3.75;;
71095;SDS011;58753;49.440;11.126;2022-07-22T11:54:29;7.55;;;4.15;;
71095;SDS011;58753;49.440;11.126;2022-07-22T11:56:55;7.27;;;4.00;;
71095;SDS011;58753;49.440;11.126;2022-07-22T11:59:21;5.30;;;3.55;;
71095;SDS011;58753;49.440;11.126;2022-07-22T12:01:49;6.40;;;3.97;;
71095;SDS011;58753;49.440;11.126;2022-07-22T12:04:22;8.07;;;4.15;;
71095;SDS011;58753;49.440;11.126;2022-07-22T12:06:49;6.40;;;4.40;;
71095;SDS011;58753;49.440;11.126;2022-07-22T12:09:16;5.00;;;3.63;;
71095;SDS011;58753;49.440;11.126;2022-07-22T12:11:54;5.68;;;3.40;;
71095;SDS011;58753;49.440;11.126;2022-07-22T12:14:23;5.75;;;3.80;;
71095;SDS011;58753;49.440;11.126;2022-07-22T12:16:56;8.30;;;3.75;;
71095;SDS011;58753;49.440;11.126;2022-07-22T12:19:24;5.18;;;3.90;;
71095;SDS011;58753;49.440;11.126;2022-07-22T12:24:59;4.97;;;3.65;;
71095;SDS011;58753;49.440;11.126;2022-07-22T12:27:26;6.03;;;3.85;;
71095;SDS011;58753;49.440;11.126;2022-07-22T12:29:51;5.43;;;3.77;;
71095;SDS011;58753;49.440;11.126;2022-07-22T12:32:23;5.95;;;3.67;;
71095;SDS011;58753;49.440;11.126;2022-07-22T12:34:56;6.43;;;3.80;;
71095;SDS011;58753;49.440;11.126;2022-07-22T12:37:25;5.97;;;3.97;;
71095;SDS011;58753;49.440;11.126;2022-07-22T12:40:08;5.65;;;4.00;;
71095;SDS011;58753;49.440;11.126;2022-07-22T12:42:40;5.35;;;3.45;;
71095;SDS011;58753;49.440;11.126;2022-07-22T12:47:53;5.25;;;3.72;;
71095;SDS011;58753;49.440;11.126;2022-07-22T12:53:05;5.30;;;3.65;;
71095;SDS011;58753;49.440;11.126;2022-07-22T12:55:36;6.03;;;3.70;;
71095;SDS011;58753;49.440;11.126;2022-07-22T12:58:06;4.97;;;3.72;;
71095;SDS011;58753;49.440;11.126;2022-07-22T13:00:37;4.60;;;3.13;;
71095;SDS011;58753;49.440;11.126;2022-07-22T13:03:04;4.30;;;3.40;;
71095;SDS011;58753;49.440;11.126;2022-07-22T13:05:30;7.28;;;4.28;;
71095;SDS011;58753;49.440;11.126;2022-07-22T13:07:56;7.35;;;3.40;;
71095;SDS011;58753;49.440;11.126;2022-07-22T13:10:22;5.37;;;3.33;;
71095;SDS011;58753;49.440;11.126;2022-07-22T13:12:49;5.38;;;4.00;;
71095;SDS011;58753;49.440;11.126;2022-07-22T13:15:15;5.47;;;3.45;;
71095;SDS011;58753;49.440;11.126;2022-07-22T13:17:41;5.38;;;3.95;;
71095;SDS011;58753;49.440;11.126;2022-07-22T13:20:07;5.10;;;3.47;;
71095;SDS011;58753;49.440;11.126;2022-07-22T13:22:34;5.20;;;3.58;;
71095;SDS011;58753;49.440;11.126;2022-07-22T13:24:59;4.67;;;3.20;;
71095;SDS011;58753;49.440;11.126;2022-07-22T13:29:50;5.83;;;3.73;;
71095;SDS011;58753;49.440;11.126;2022-07-22T13:32:16;4.20;;;3.53;;
71095;SDS011;58753;49.440;11.126;2022-07-22T13:34:41;5.67;;;3.90;;
71095;SDS011;58753;49.440;11.126;2022-07-22T13:59:41;5.13;;;3.22;;
71095;SDS011;58753;49.440;11.126;2022-07-22T14:02:07;6.63;;;3.53;;
71095;SDS011;58753;49.440;11.126;2022-07-22T14:04:33;6.72;;;3.92;;
71095;SDS011;58753;49.440;11.126;2022-07-22T14:12:54;5.07;;;3.88;;
71095;SDS011;58753;49.440;11.126;2022-07-22T14:15:19;4.87;;;3.37;;
71095;SDS011;58753;49.440;11.126;2022-07-22T14:17:45;4.57;;;3.65;;
71095;SDS011;58753;49.440;11.126;2022-07-22T14:20:11;7.47;;;3.78;;
71095;SDS011;58753;49.440;11.126;2022-07-22T14:33:34;5.60;;;3.92;;
71095;SDS011;58753;49.440;11.126;2022-07-22T14:36:00;4.33;;;3.27;;
71095;SDS011;58753;49.440;11.126;2022-07-22T14:38:25;5.80;;;3.87;;
71095;SDS011;58753;49.440;11.126;2022-07-22T14:40:50;5.57;;;3.65;;
71095;SDS011;58753;49.440;11.126;2022-07-22T14:48:10;5.70;;;3.80;;
71095;SDS011;58753;49.440;11.126;2022-07-22T14:50:35;4.60;;;3.42;;
71095;SDS011;58753;49.440;11.126;2022-07-22T14:53:01;7.10;;;3.67;;
71095;SDS011;58753;49.440;11.126;2022-07-22T14:55:26;5.55;;;3.67;;
71095;SDS011;58753;49.440;11.126;2022-07-22T14:57:52;5.40;;;3.50;;
71095;SDS011;58753;49.440;11.126;2022-07-22T15:16:54;5.30;;;3.75;;
71095;SDS011;58753;49.440;11.126;2022-07-22T15:19:19;5.20;;;3.80;;
71095;SDS011;58753;49.440;11.126;2022-07-22T15:21:45;4.67;;;4.13;;
71095;SDS011;58753;49.440;11.126;2022-07-22T15:24:12;5.78;;;3.17;;
71095;SDS011;58753;49.440;11.126;2022-07-22T15:26:37;5.05;;;2.95;;
71095;SDS011;58753;49.440;11.126;2022-07-22T15:29:03;6.73;;;3.83;;
71095;SDS011;58753;49.440;11.126;2022-07-22T15:31:28;4.53;;;3.13;;
71095;SDS011;58753;49.440;11.126;2022-07-22T15:42:15;5.78;;;3.80;;
71095;SDS011;58753;49.440;11.126;2022-07-22T15:44:41;4.32;;;3.40;;
71095;SDS011;58753;49.440;11.126;2022-07-22T15:47:06;5.47;;;3.73;;
71095;SDS011;58753;49.440;11.126;2022-07-22T15:49:32;6.57;;;3.47;;
71095;SDS011;58753;49.440;11.126;2022-07-22T15:51:57;5.28;;;3.88;;
71095;SDS011;58753;49.440;11.126;2022-07-22T16:02:52;6.60;;;3.40;;
71095;SDS011;58753;49.440;11.126;2022-07-22T16:05:18;6.63;;;3.53;;
71095;SDS011;58753;49.440;11.126;2022-07-22T16:07:43;4.67;;;3.23;;
71095;SDS011;58753;49.440;11.126;2022-07-22T16:15:31;6.13;;;3.40;;
71095;SDS011;58753;49.440;11.126;2022-07-22T16:17:56;5.77;;;3.23;;
71095;SDS011;58753;49.440;11.126;2022-07-22T16:22:47;5.95;;;3.33;;
71095;SDS011;58753;49.440;11.126;2022-07-22T16:42:25;5.28;;;3.55;;
71095;SDS011;58753;49.440;11.126;2022-07-22T16:44:50;4.50;;;3.20;;
71095;SDS011;58753;49.440;11.126;2022-07-22T16:57:28;4.90;;;3.40;;
71095;SDS011;58753;49.440;11.126;2022-07-22T16:59:55;5.43;;;3.03;;